Reeders, Pennsylvania
Current Conditions -  °F | °C
As of 6:53 AM on Thursday 27 Nov 2014 (Local Time) from KMPO Reporting Station
Light Snow Light Snow  
Wind Chill: -9°   Ceiling: 3900
Heat Index: -3°   Visibility: 4mi
Dew Point: -5°   Wind: 12mph
Humidity: 85%   Direction: 320°NW
Pressure: 29.88"   Gusts: NA
Location:  41.02°N, 75.34°W
Report Text: KMPO 271153Z AUTO 32010KT 4SM -SN BR BKN039 OVC055 M03/M05 A2988 RMK AO2 SLP140 P0001 60002 70062 T10281050 11022 21028 50008
Loading
Personal Weather Stations






























Interactive Weather Map New forecast layout! Learn more

10-Day Weather Forecast

Advertisements
Track Severe Weather on mobile